Date,TemperatureHighF,TemperatureAvgF,TemperatureLowF,DewpointHighF,DewpointAvgF,DewpointLowF,HumidityHigh,HumidityAvg,HumidityLow,PressureMaxIn,PressureMinIn,WindSpeedMaxMPH,WindSpeedAvgMPH,GustSpeedMaxMPH,PrecipitationSumIn
2013-4-1,60,38,24,31,23,10,92,60,14,30.00,29.85,15,4,21,0.00
2013-4-2,43,32,28,35,29,26,92,88,67,29.93,29.87,11,3,14,0.15
2013-4-3,56,38,20,32,21,4,91,59,15,30.03,29.91,9,3,13,0.22
2013-4-4,63,44,28,24,18,4,74,41,10,30.03,29.96,13,4,18,0.00
2013-4-5,65,45,32,32,20,11,86,43,13,29.97,29.76,17,5,21,0.05
2013-4-6,59,43,32,27,20,14,78,43,18,29.87,29.81,16,4,23,0.01
2013-4-7,54,40,30,32,22,16,75,50,23,29.83,29.71,14,6,26,0.00
2013-4-8,60,42,26,30,20,1,91,50,10,29.74,29.47,17,4,25,0.00
2013-4-9,26,13,2,23,7,-3,89,77,57,29.80,29.63,14,3,20,0.00
2013-4-10,38,18,-3,20,6,-8,82,63,31,29.78,29.69,13,5,25,0.07
2013-4-11,30,26,22,15,12,7,60,53,51,29.71,29.64,9,5,18,0.00
2013-4-12,51,36,25,27,18,3,84,56,15,29.85,29.76,16,4,18,0.00
2013-4-13,60,42,26,31,15,6,83,39,15,29.85,29.51,24,8,31,0.01
2013-4-14,40,33,27,31,17,7,88,56,28,29.66,29.50,19,4,27,0.08
2013-4-15,29,25,21,23,20,13,89,81,54,29.77,29.59,7,3,12,0.00
2013-4-16,45,22,18,26,18,15,91,85,47,29.77,29.69,7,3,11,0.15
2013-4-17,27,18,8,24,15,4,92,87,75,29.85,29.69,10,4,14,0.00
2013-4-18,34,18,-1,13,3,-6,83,55,31,29.94,29.79,13,5,27,0.11
2013-4-19,45,31,19,20,13,5,74,47,28,32.14,29.86,14,6,21,0.00
2013-4-20,48,33,22,28,22,16,85,65,33,29.93,29.81,10,4,15,0.00
2013-4-21,55,39,25,25,20,14,84,49,23,29.96,29.90,13,5,24,0.00
2013-4-22,49,31,14,34,22,10,88,73,37,29.96,29.83,16,5,21,0.02
2013-4-23,36,21,10,21,12,5,85,71,41,29.95,29.85,10,3,14,0.06
2013-4-24,16,10,7,6,4,1,80,73,62,29.95,29.91,4,2,8,0.00
2013-4-25,58,44,31,24,18,3,71,42,13,29.96,29.87,11,4,14,0.00
2013-4-26,58,41,26,23,18,10,77,46,18,30.15,29.96,12,4,17,0.00
2013-4-27,64,45,27,23,16,4,76,40,10,31.61,30.03,14,5,21,0.00
2013-4-28,70,51,32,26,18,9,60,33,10,30.05,29.91,14,6,21,0.00
2013-4-29,70,53,33,30,20,10,76,34,11,29.97,29.74,15,6,26,0.00
2013-4-30,69,52,38,36,25,15,72,38,14,29.80,29.72,15,6,24,0.00